Time;durP1;ratioP1;P1;durP2;ratioP2;P2;SDS_P1;SDS_P2;PMS_P1;PMS_P2;Temp;Humidity;BMP_temperature;BMP_pressure;BME280_temperature;BME280_humidity;BME280_pressure;Samples;Min_cycle;Max_cycle;Signal;HPM_P1;HPM_P2
2023/05/19 00:01:59;;;;;;;0.10;0.10;;;;;;;;;;6162750;23;20565;-75
2023/05/19 00:04:46;;;;;;;0.10;0.10;;;;;;;;;;6163518;23;20013;-75
2023/05/19 00:07:32;;;;;;;0.10;0.10;;;;;;;;;;6163165;23;20042;-75
2023/05/19 00:10:18;;;;;;;0.00;0.00;;;;;;;;;;6164002;23;20387;-75
2023/05/19 00:13:04;;;;;;;0.10;0.10;;;;;;;;;;6163782;23;20069;-75
2023/05/19 00:15:49;;;;;;;0.10;0.10;;;;;;;;;;6163747;23;20095;-75
2023/05/19 00:18:35;;;;;;;0.10;0.10;;;;;;;;;;6162621;23;20017;-75
2023/05/19 00:21:21;;;;;;;0.10;0.10;;;;;;;;;;6164440;23;20025;-75
2023/05/19 00:24:07;;;;;;;0.00;0.00;;;;;;;;;;6163162;23;20459;-75
2023/05/19 00:26:52;;;;;;;0.10;0.10;;;;;;;;;;6164324;23;20467;-75
2023/05/19 00:29:38;;;;;;;0.10;0.10;;;;;;;;;;6163263;23;20013;-76
2023/05/19 00:32:24;;;;;;;0.10;0.10;;;;;;;;;;6163924;23;20048;-76
2023/05/19 00:35:10;;;;;;;0.10;0.10;;;;;;;;;;6163044;23;20337;-75
2023/05/19 00:37:56;;;;;;;0.10;0.10;;;;;;;;;;6143864;23;20009;-76
2023/05/19 00:40:42;;;;;;;0.10;0.10;;;;;;;;;;6121178;23;20020;-76
2023/05/19 00:43:29;;;;;;;0.10;0.10;;;;;;;;;;6143757;23;20020;-76
2023/05/19 00:46:14;;;;;;;0.10;0.10;;;;;;;;;;6164100;23;20041;-75
2023/05/19 00:49:00;;;;;;;0.10;0.10;;;;;;;;;;6143676;23;20025;-76
2023/05/19 00:51:46;;;;;;;0.10;0.10;;;;;;;;;;6162452;23;20047;-75
2023/05/19 00:54:34;;;;;;;0.10;0.10;;;;;;;;;;6144033;23;20326;-75
2023/05/19 00:57:21;;;;;;;0.10;0.10;;;;;;;;;;6162792;23;20085;-75
2023/05/19 01:00:07;;;;;;;0.10;0.10;;;;;;;;;;6140741;23;20293;-75
2023/05/19 01:05:35;;;;;;;0.10;0.10;;;;;;;;;;6167562;22;20024;-71
2023/05/19 01:08:22;;;;;;;0.10;0.10;;;;;;;;;;6118097;23;20017;-71
2023/05/19 02:52:16;;;;;;;0.10;0.10;;;;;;;;;;6126233;23;20301;-74
2023/05/19 02:55:02;;;;;;;0.10;0.10;;;;;;;;;;6105341;23;20072;-74
2023/05/19 02:57:48;;;;;;;0.10;0.10;;;;;;;;;;6105855;23;20448;-75
2023/05/19 03:00:33;;;;;;;0.10;0.10;;;;;;;;;;6084610;23;20550;-74
2023/05/19 03:03:19;;;;;;;0.10;0.10;;;;;;;;;;6102914;23;20595;-74
2023/05/19 03:06:08;;;;;;;0.10;0.10;;;;;;;;;;6103414;23;20076;-74
2023/05/19 03:08:54;;;;;;;0.10;0.10;;;;;;;;;;6102245;23;20058;-74
2023/05/19 03:11:40;;;;;;;0.10;0.10;;;;;;;;;;6102217;23;20018;-74
2023/05/19 03:14:28;;;;;;;0.10;0.10;;;;;;;;;;6104370;23;20010;-74
2023/05/19 03:17:14;;;;;;;0.10;0.10;;;;;;;;;;6105278;23;20014;-74
2023/05/19 03:20:00;;;;;;;0.10;0.10;;;;;;;;;;6104628;23;20113;-74
2023/05/19 03:22:46;;;;;;;0.10;0.10;;;;;;;;;;6103945;23;20022;-75
2023/05/19 03:25:32;;;;;;;0.10;0.10;;;;;;;;;;6106002;23;20345;-74
2023/05/19 03:28:17;;;;;;;0.10;0.10;;;;;;;;;;6107071;23;20018;-74
2023/05/19 03:31:03;;;;;;;0.10;0.10;;;;;;;;;;6101785;23;20407;-73
2023/05/19 03:33:56;;;;;;;0.10;0.10;;;;;;;;;;6103952;23;20018;-74
2023/05/19 03:36:43;;;;;;;0.10;0.10;;;;;;;;;;6104839;23;20025;-75
2023/05/19 03:39:33;;;;;;;;;;;;;;;;;;6105136;23;20065;-74
2023/05/19 03:42:19;;;;;;;0.10;0.10;;;;;;;;;;6106379;23;19940;-73
2023/05/19 03:45:05;;;;;;;0.10;0.10;;;;;;;;;;6106236;23;20041;-77
2023/05/19 03:47:52;;;;;;;0.10;0.10;;;;;;;;;;6085212;23;20018;-77
2023/05/19 03:50:49;;;;;;;0.10;0.10;;;;;;;;;;6109382;23;20483;-77
2023/05/19 03:53:40;;;;;;;0.10;0.10;;;;;;;;;;6112864;23;20658;-77
2023/05/19 03:56:27;;;;;;;0.10;0.10;;;;;;;;;;6113075;23;20014;-77
2023/05/19 03:59:12;;;;;;;0.10;0.10;;;;;;;;;;6135820;23;20045;-77
2023/05/19 04:01:58;;;;;;;0.10;0.10;;;;;;;;;;6113285;23;20029;-77
2023/05/19 04:04:45;;;;;;;0.10;0.10;;;;;;;;;;6114629;23;20487;-77
2023/05/19 04:07:30;;;;;;;0.10;0.10;;;;;;;;;;6115916;23;20128;-77
2023/05/19 04:10:19;;;;;;;0.10;0.10;;;;;;;;;;6114808;23;20018;-77
2023/05/19 04:13:06;;;;;;;0.10;0.10;;;;;;;;;;6096654;23;20368;-77
2023/05/19 04:15:51;;;;;;;0.10;0.10;;;;;;;;;;6116030;23;20195;-77
2023/05/19 04:18:37;;;;;;;0.10;0.10;;;;;;;;;;6134736;23;20041;-77
2023/05/19 04:21:23;;;;;;;0.10;0.10;;;;;;;;;;6115432;23;20092;-76
2023/05/19 04:24:09;;;;;;;0.10;0.10;;;;;;;;;;6113437;23;20021;-77
2023/05/19 04:26:55;;;;;;;0.10;0.10;;;;;;;;;;6114887;23;20017;-77
2023/05/19 04:29:41;;;;;;;0.10;0.10;;;;;;;;;;6113258;23;20125;-76
2023/05/19 04:32:28;;;;;;;0.10;0.10;;;;;;;;;;6135198;23;20356;-77
2023/05/19 04:35:16;;;;;;;0.10;0.10;;;;;;;;;;6114248;23;20332;-77
2023/05/19 04:38:02;;;;;;;0.10;0.10;;;;;;;;;;6114807;23;20631;-76
2023/05/19 04:40:51;;;;;;;0.10;0.10;;;;;;;;;;6115686;23;20541;-77
2023/05/19 04:43:40;;;;;;;0.10;0.10;;;;;;;;;;6115163;23;20017;-77
2023/05/19 04:46:28;;;;;;;0.10;0.10;;;;;;;;;;6113197;23;20064;-77
2023/05/19 04:49:15;;;;;;;0.10;0.10;;;;;;;;;;6116553;23;20017;-78
2023/05/19 04:52:00;;;;;;;0.10;0.10;;;;;;;;;;6114122;23;20281;-77
2023/05/19 04:54:48;;;;;;;0.10;0.10;;;;;;;;;;6114787;23;20096;-77
2023/05/19 04:57:34;;;;;;;0.10;0.10;;;;;;;;;;6117381;23;20231;-77
2023/05/19 05:00:21;;;;;;;0.10;0.10;;;;;;;;;;6116966;23;20041;-77
2023/05/19 05:03:23;;;;;;;0.10;0.10;;;;;;;;;;6116137;23;20025;-76
2023/05/19 05:06:10;;;;;;;0.10;0.10;;;;;;;;;;6117290;23;20013;-76
2023/05/19 05:08:58;;;;;;;0.10;0.10;;;;;;;;;;6096212;23;20416;-76
2023/05/19 05:11:44;;;;;;;0.10;0.10;;;;;;;;;;6117406;23;20017;-76
2023/05/19 05:14:30;;;;;;;0.15;0.15;;;;;;;;;;6116913;23;20354;-77
2023/05/19 05:17:16;;;;;;;0.10;0.10;;;;;;;;;;6137290;23;20483;-77
2023/05/19 05:20:04;;;;;;;0.10;0.10;;;;;;;;;;6138861;23;20351;-76
2023/05/19 05:22:50;;;;;;;0.10;0.10;;;;;;;;;;6114428;23;20019;-77
2023/05/19 05:25:39;;;;;;;0.10;0.10;;;;;;;;;;6115022;23;20040;-77
2023/05/19 05:28:25;;;;;;;0.10;0.10;;;;;;;;;;6117665;23;20017;-76
2023/05/19 05:31:12;;;;;;;0.10;0.10;;;;;;;;;;6117003;23;20434;-76
2023/05/19 05:33:59;;;;;;;0.25;0.25;;;;;;;;;;6115525;23;20063;-77
2023/05/19 05:36:48;;;;;;;0.20;0.20;;;;;;;;;;6114311;23;20041;-77
2023/05/19 05:39:36;;;;;;;0.10;0.10;;;;;;;;;;6115756;23;20045;-77
2023/05/19 05:42:22;;;;;;;0.10;0.10;;;;;;;;;;6115550;23;20017;-76
2023/05/19 05:45:08;;;;;;;0.13;0.13;;;;;;;;;;6115911;23;20009;-77
2023/05/19 05:47:54;;;;;;;0.10;0.10;;;;;;;;;;6114436;23;20513;-77
2023/05/19 05:50:41;;;;;;;0.10;0.10;;;;;;;;;;6116697;23;20470;-77
2023/05/19 05:53:29;;;;;;;0.10;0.10;;;;;;;;;;6116734;23;20013;-77
2023/05/19 05:56:16;;;;;;;0.10;0.10;;;;;;;;;;6116535;23;20045;-77
2023/05/19 05:59:08;;;;;;;0.10;0.10;;;;;;;;;;6115939;23;20040;-77
2023/05/19 06:01:53;;;;;;;0.10;0.10;;;;;;;;;;6114212;23;20330;-77
2023/05/19 06:04:40;;;;;;;0.10;0.10;;;;;;;;;;6114830;23;20852;-77
2023/05/19 06:07:26;;;;;;;0.10;0.10;;;;;;;;;;6115987;23;20014;-76
2023/05/19 06:10:12;;;;;;;0.10;0.10;;;;;;;;;;6114556;23;20415;-77
2023/05/19 06:12:58;;;;;;;0.10;0.10;;;;;;;;;;6116031;23;20020;-77
2023/05/19 06:15:44;;;;;;;0.10;0.10;;;;;;;;;;6114804;23;20022;-76
2023/05/19 06:18:44;;;;;;;0.10;0.10;;;;;;;;;;6114767;23;20029;-77
2023/05/19 06:21:30;;;;;;;0.10;0.10;;;;;;;;;;6115822;23;20021;-77
2023/05/19 06:24:16;;;;;;;0.10;0.10;;;;;;;;;;6138507;23;20347;-77
2023/05/19 06:27:02;;;;;;;0.10;0.10;;;;;;;;;;6135528;23;20203;-77
2023/05/19 06:29:50;;;;;;;0.10;0.10;;;;;;;;;;6112079;23;20503;-77
2023/05/19 06:32:36;;;;;;;0.10;0.10;;;;;;;;;;6112042;23;20418;-75
2023/05/19 06:35:22;;;;;;;0.10;0.10;;;;;;;;;;6136562;23;20017;-75
2023/05/19 06:38:08;;;;;;;0.10;0.10;;;;;;;;;;6136086;23;20013;-76
2023/05/19 06:40:54;;;;;;;0.10;0.10;;;;;;;;;;6115258;23;20418;-75
2023/05/19 06:43:41;;;;;;;0.22;0.17;;;;;;;;;;6113597;23;20557;-75
2023/05/19 06:46:30;;;;;;;0.10;0.10;;;;;;;;;;6134882;23;20097;-76
2023/05/19 06:49:16;;;;;;;0.10;0.10;;;;;;;;;;6134801;23;20017;-76
2023/05/19 06:52:04;;;;;;;0.10;0.10;;;;;;;;;;6114335;23;20030;-75
2023/05/19 06:54:52;;;;;;;0.10;0.10;;;;;;;;;;6114266;23;20514;-75
2023/05/19 06:57:37;;;;;;;0.10;0.10;;;;;;;;;;6113075;23;20017;-76
2023/05/19 07:00:25;;;;;;;0.10;0.10;;;;;;;;;;6115048;23;20068;-76
2023/05/19 07:03:12;;;;;;;0.10;0.10;;;;;;;;;;6113131;23;20049;-77
2023/05/19 07:05:58;;;;;;;0.10;0.10;;;;;;;;;;6136105;23;20083;-77
2023/05/19 07:08:44;;;;;;;0.10;0.10;;;;;;;;;;6113482;23;20018;-77
2023/05/19 07:11:31;;;;;;;0.10;0.10;;;;;;;;;;6113698;23;20017;-76
2023/05/19 07:14:17;;;;;;;0.10;0.10;;;;;;;;;;6114126;23;20025;-76
2023/05/19 07:17:03;;;;;;;0.10;0.10;;;;;;;;;;6113813;23;20351;-77
2023/05/19 07:19:49;;;;;;;0.10;0.10;;;;;;;;;;6135425;23;20424;-77
2023/05/19 07:22:35;;;;;;;0.10;0.10;;;;;;;;;;6114765;23;20461;-77
2023/05/19 07:25:21;;;;;;;0.10;0.10;;;;;;;;;;6114250;23;20016;-77
2023/05/19 07:28:07;;;;;;;0.10;0.10;;;;;;;;;;6113085;23;20017;-77
2023/05/19 07:30:53;;;;;;;0.10;0.10;;;;;;;;;;6135124;23;20367;-77
2023/05/19 07:33:39;;;;;;;0.10;0.10;;;;;;;;;;6134521;23;20301;-77
2023/05/19 07:36:26;;;;;;;0.10;0.10;;;;;;;;;;6137633;23;20455;-77
2023/05/19 07:39:11;;;;;;;0.10;0.10;;;;;;;;;;6135574;23;20093;-77
2023/05/19 07:41:58;;;;;;;0.10;0.10;;;;;;;;;;6135122;23;20021;-78
2023/05/19 07:44:43;;;;;;;0.10;0.10;;;;;;;;;;6134060;23;20144;-77
2023/05/19 07:47:29;;;;;;;0.10;0.10;;;;;;;;;;6136126;23;20021;-77
2023/05/19 07:50:15;;;;;;;0.10;0.10;;;;;;;;;;6113383;23;20052;-77
2023/05/19 07:53:01;;;;;;;0.10;0.10;;;;;;;;;;6135312;23;20328;-78
2023/05/19 07:55:47;;;;;;;0.10;0.10;;;;;;;;;;6138377;23;20041;-78
2023/05/19 07:58:33;;;;;;;0.10;0.10;;;;;;;;;;6135419;23;20087;-78
2023/05/19 08:01:19;;;;;;;0.10;0.10;;;;;;;;;;6135079;23;20048;-78
2023/05/19 08:04:05;;;;;;;0.10;0.10;;;;;;;;;;6115695;23;20014;-78
2023/05/19 08:06:51;;;;;;;0.10;0.10;;;;;;;;;;6134791;23;20013;-78
2023/05/19 08:09:37;;;;;;;0.10;0.10;;;;;;;;;;6134891;23;20199;-78
2023/05/19 08:12:23;;;;;;;0.10;0.10;;;;;;;;;;6112920;23;20021;-78
2023/05/19 08:15:10;;;;;;;0.10;0.10;;;;;;;;;;6135038;23;20101;-78
2023/05/19 08:17:56;;;;;;;0.10;0.10;;;;;;;;;;6136384;23;20013;-78
2023/05/19 08:20:41;;;;;;;0.10;0.10;;;;;;;;;;6134262;23;20076;-78
2023/05/19 08:23:27;;;;;;;0.10;0.10;;;;;;;;;;6135111;23;20352;-78
2023/05/19 08:26:13;;;;;;;0.10;0.10;;;;;;;;;;6134951;23;20350;-78
2023/05/19 08:28:58;;;;;;;0.10;0.10;;;;;;;;;;6137075;23;20021;-78
2023/05/19 08:31:44;;;;;;;0.10;0.10;;;;;;;;;;6135142;23;20463;-78
2023/05/19 08:34:31;;;;;;;0.10;0.10;;;;;;;;;;6138266;23;20706;-78
2023/05/19 08:37:16;;;;;;;0.10;0.10;;;;;;;;;;6136812;23;20439;-78
2023/05/19 08:40:04;;;;;;;0.10;0.10;;;;;;;;;;6137343;23;20021;-78
2023/05/19 08:42:50;;;;;;;0.10;0.10;;;;;;;;;;6137436;23;20015;-78
2023/05/19 08:45:37;;;;;;;0.10;0.10;;;;;;;;;;6136640;23;20749;-77
2023/05/19 08:48:23;;;;;;;0.10;0.10;;;;;;;;;;6136400;23;20022;-78
2023/05/19 08:51:17;;;;;;;0.10;0.10;;;;;;;;;;6137057;23;20021;-78
2023/05/19 08:54:08;;;;;;;0.10;0.10;;;;;;;;;;6137202;23;20110;-78
2023/05/19 08:56:54;;;;;;;0.10;0.10;;;;;;;;;;6135726;23;20048;-78
2023/05/19 08:59:40;;;;;;;0.10;0.10;;;;;;;;;;6136369;23;20013;-78
2023/05/19 09:02:26;;;;;;;0.10;0.10;;;;;;;;;;6137268;23;20052;-78
2023/05/19 09:05:11;;;;;;;0.10;0.10;;;;;;;;;;6137513;23;20319;-78
2023/05/19 09:07:57;;;;;;;0.10;0.10;;;;;;;;;;6136822;23;20048;-78
2023/05/19 09:10:43;;;;;;;0.10;0.10;;;;;;;;;;6136864;23;20156;-78
2023/05/19 09:13:29;;;;;;;0.10;0.10;;;;;;;;;;6115463;23;20390;-78
2023/05/19 09:16:16;;;;;;;0.10;0.10;;;;;;;;;;6137005;23;20443;-78
2023/05/19 09:19:01;;;;;;;0.00;0.00;;;;;;;;;;6115027;23;20045;-78
2023/05/19 09:21:57;;;;;;;0.10;0.10;;;;;;;;;;6138628;23;20022;-78
2023/05/19 09:24:43;;;;;;;0.10;0.10;;;;;;;;;;6135448;23;20545;-78
2023/05/19 09:27:32;;;;;;;0.10;0.10;;;;;;;;;;6096662;23;20028;-78
2023/05/19 09:30:18;;;;;;;0.10;0.10;;;;;;;;;;6117641;23;20052;-78
2023/05/19 09:33:08;;;;;;;0.10;0.10;;;;;;;;;;6116644;23;20014;-78
2023/05/19 09:35:57;;;;;;;0.10;0.10;;;;;;;;;;6136774;23;20013;-78
2023/05/19 09:38:44;;;;;;;0.10;0.10;;;;;;;;;;6135249;23;20100;-78
2023/05/19 09:41:29;;;;;;;0.10;0.10;;;;;;;;;;6117132;23;20025;-78
2023/05/19 09:44:18;;;;;;;0.10;0.10;;;;;;;;;;6136018;23;20513;-78
2023/05/19 09:47:04;;;;;;;0.13;0.13;;;;;;;;;;6135991;23;20032;-78
2023/05/19 09:49:51;;;;;;;0.10;0.10;;;;;;;;;;6113538;23;20343;-78
2023/05/19 09:52:37;;;;;;;0.10;0.10;;;;;;;;;;6114341;23;20517;-78
2023/05/19 09:55:24;;;;;;;0.10;0.10;;;;;;;;;;6137697;23;20017;-78
2023/05/19 09:58:14;;;;;;;0.10;0.10;;;;;;;;;;6137141;23;20052;-77
2023/05/19 10:01:01;;;;;;;0.10;0.10;;;;;;;;;;6136442;23;20056;-78
2023/05/19 10:03:46;;;;;;;0.10;0.10;;;;;;;;;;6116140;23;20265;-78
2023/05/19 10:06:32;;;;;;;0.10;0.10;;;;;;;;;;6135851;23;20013;-78
2023/05/19 10:09:24;;;;;;;0.10;0.10;;;;;;;;;;6137769;23;20017;-77
2023/05/19 10:12:11;;;;;;;0.10;0.10;;;;;;;;;;6114715;23;20018;-78
2023/05/19 10:14:56;;;;;;;0.10;0.10;;;;;;;;;;6115906;23;20009;-77
2023/05/19 10:17:43;;;;;;;0.10;0.10;;;;;;;;;;6116470;23;20550;-78
2023/05/19 10:20:29;;;;;;;0.10;0.10;;;;;;;;;;6115658;23;20096;-77
2023/05/19 10:23:15;;;;;;;0.10;0.10;;;;;;;;;;6138412;23;20451;-78
2023/05/19 10:26:03;;;;;;;0.10;0.10;;;;;;;;;;6136075;23;20021;-78
2023/05/19 10:28:50;;;;;;;0.10;0.10;;;;;;;;;;6135435;23;20025;-78
2023/05/19 10:31:36;;;;;;;0.00;0.00;;;;;;;;;;6132494;23;20021;-78
2023/05/19 10:34:31;;;;;;;0.10;0.10;;;;;;;;;;6136367;23;20044;-78
2023/05/19 10:37:44;;;;;;;0.10;0.10;;;;;;;;;;6137113;23;20125;-79
2023/05/19 10:40:32;;;;;;;0.10;0.10;;;;;;;;;;6135336;23;20025;-78
2023/05/19 10:43:28;;;;;;;0.10;0.10;;;;;;;;;;6135120;23;20056;-79
2023/05/19 10:46:14;;;;;;;0.10;0.10;;;;;;;;;;6135336;23;20405;-78
2023/05/19 10:49:00;;;;;;;0.05;0.05;;;;;;;;;;6114965;23;20095;-78
2023/05/19 10:51:45;;;;;;;0.13;0.10;;;;;;;;;;6134798;23;20040;-78
2023/05/19 10:54:42;;;;;;;0.10;0.10;;;;;;;;;;6135869;23;20439;-78
2023/05/19 10:57:30;;;;;;;0.10;0.10;;;;;;;;;;6114428;23;20040;-78
2023/05/19 11:00:26;;;;;;;0.20;0.20;;;;;;;;;;6136049;23;20079;-79
2023/05/19 11:03:12;;;;;;;0.10;0.10;;;;;;;;;;6136246;23;20010;-78
2023/05/19 11:06:16;;;;;;;0.10;0.10;;;;;;;;;;6136015;23;20062;-79
2023/05/19 11:09:16;;;;;;;0.10;0.10;;;;;;;;;;6116533;23;20092;-78
2023/05/19 11:12:02;;;;;;;0.10;0.10;;;;;;;;;;6137532;23;20454;-78
2023/05/19 11:14:51;;;;;;;0.10;0.10;;;;;;;;;;6135748;23;20494;-79
2023/05/19 11:17:38;;;;;;;0.10;0.10;;;;;;;;;;6114311;23;20017;-79
2023/05/19 11:20:25;;;;;;;0.10;0.10;;;;;;;;;;6136559;23;20022;-78
2023/05/19 11:23:18;;;;;;;0.15;0.15;;;;;;;;;;6115288;23;20028;-79
2023/05/19 11:26:05;;;;;;;0.20;0.20;;;;;;;;;;6136554;23;20017;-79
2023/05/19 11:28:51;;;;;;;0.20;0.20;;;;;;;;;;6115412;23;20088;-79
2023/05/19 11:31:37;;;;;;;0.17;0.17;;;;;;;;;;6132542;23;20109;-79
2023/05/19 11:34:24;;;;;;;0.20;0.20;;;;;;;;;;6135537;23;20485;-79
2023/05/19 11:37:11;;;;;;;0.10;0.10;;;;;;;;;;6135176;23;20024;-79
2023/05/19 11:39:57;;;;;;;0.13;0.13;;;;;;;;;;6134260;23;20762;-79
2023/05/19 11:42:44;;;;;;;0.10;0.10;;;;;;;;;;6114460;23;20044;-79
2023/05/19 11:45:30;;;;;;;0.20;0.20;;;;;;;;;;6134303;23;20020;-79
2023/05/19 11:48:19;;;;;;;0.10;0.10;;;;;;;;;;6134954;23;20092;-79
2023/05/19 11:51:05;;;;;;;0.17;0.17;;;;;;;;;;6135559;23;20053;-79
2023/05/19 11:53:53;;;;;;;0.10;0.10;;;;;;;;;;6134228;23;20025;-79
2023/05/19 11:56:39;;;;;;;0.10;0.10;;;;;;;;;;6134846;23;20013;-79
2023/05/19 11:59:29;;;;;;;0.10;0.10;;;;;;;;;;6113222;23;21032;-79
2023/05/19 12:02:19;;;;;;;0.10;0.10;;;;;;;;;;6114913;23;20026;-76
2023/05/19 12:05:05;;;;;;;0.10;0.10;;;;;;;;;;6136169;23;20378;-77
2023/05/19 12:07:51;;;;;;;0.10;0.10;;;;;;;;;;6134206;23;20018;-77
2023/05/19 12:10:37;;;;;;;0.10;0.10;;;;;;;;;;6135337;23;20063;-78
2023/05/19 12:13:23;;;;;;;0.10;0.10;;;;;;;;;;6135928;23;20013;-77
2023/05/19 12:16:10;;;;;;;0.20;0.20;;;;;;;;;;6137102;23;20101;-78
2023/05/19 12:18:55;;;;;;;0.10;0.10;;;;;;;;;;6134704;23;20388;-78
2023/05/19 12:21:41;;;;;;;0.10;0.10;;;;;;;;;;6134098;23;20021;-78
2023/05/19 12:24:28;;;;;;;0.10;0.10;;;;;;;;;;6134095;23;20024;-78
2023/05/19 12:27:22;;;;;;;0.10;0.10;;;;;;;;;;6135766;23;20107;-78
2023/05/19 12:30:08;;;;;;;0.10;0.10;;;;;;;;;;6134892;23;20022;-78
2023/05/19 12:32:56;;;;;;;0.15;0.10;;;;;;;;;;6136901;23;20013;-78
2023/05/19 12:35:42;;;;;;;0.10;0.10;;;;;;;;;;6113675;23;20017;-78
2023/05/19 12:38:27;;;;;;;0.10;0.10;;;;;;;;;;6114565;23;20355;-78
2023/05/19 12:41:13;;;;;;;0.10;0.10;;;;;;;;;;6135193;23;20021;-79
2023/05/19 12:43:59;;;;;;;0.10;0.10;;;;;;;;;;6113866;23;20013;-79
2023/05/19 12:46:45;;;;;;;0.10;0.10;;;;;;;;;;6112583;23;20153;-79
2023/05/19 12:49:31;;;;;;;0.10;0.10;;;;;;;;;;6135252;23;20025;-79
2023/05/19 12:52:17;;;;;;;0.10;0.10;;;;;;;;;;6134860;23;20025;-79
2023/05/19 12:55:13;;;;;;;0.17;0.17;;;;;;;;;;6112756;23;20017;-79
2023/05/19 12:58:04;;;;;;;0.10;0.10;;;;;;;;;;6134909;23;20010;-79
2023/05/19 13:00:54;;;;;;;0.10;0.10;;;;;;;;;;6134585;23;20402;-80
2023/05/19 13:03:41;;;;;;;0.10;0.10;;;;;;;;;;6135106;23;20021;-78
2023/05/19 13:06:26;;;;;;;0.10;0.10;;;;;;;;;;6136115;23;20032;-79
2023/05/19 13:09:16;;;;;;;0.10;0.10;;;;;;;;;;6135043;23;20025;-80
2023/05/19 13:12:03;;;;;;;0.10;0.10;;;;;;;;;;6135940;23;20045;-80
2023/05/19 13:14:49;;;;;;;0.10;0.10;;;;;;;;;;6115387;23;20032;-80
2023/05/19 13:17:35;;;;;;;0.10;0.10;;;;;;;;;;6136740;23;20017;-79
2023/05/19 13:20:21;;;;;;;0.32;0.13;;;;;;;;;;6136902;23;20021;-79
2023/05/19 13:23:08;;;;;;;0.10;0.10;;;;;;;;;;6136671;23;20343;-79
2023/05/19 13:25:54;;;;;;;0.05;0.05;;;;;;;;;;6115460;23;20042;-80
2023/05/19 13:28:40;;;;;;;0.00;0.00;;;;;;;;;;6136706;23;20235;-79
2023/05/19 13:31:25;;;;;;;0.10;0.10;;;;;;;;;;6137035;23;20482;-79
2023/05/19 13:34:11;;;;;;;0.10;0.10;;;;;;;;;;6137372;23;20049;-79
2023/05/19 13:36:57;;;;;;;0.10;0.10;;;;;;;;;;6136367;23;20014;-80
2023/05/19 13:39:42;;;;;;;0.10;0.10;;;;;;;;;;6136090;23;20096;-79
2023/05/19 13:42:32;;;;;;;0.00;0.00;;;;;;;;;;6138187;23;20056;-80
2023/05/19 13:45:17;;;;;;;0.10;0.10;;;;;;;;;;6117764;23;20021;-79
2023/05/19 13:48:05;;;;;;;0.00;0.00;;;;;;;;;;6136692;23;20013;-80
2023/05/19 13:50:53;;;;;;;0.10;0.10;;;;;;;;;;6137548;23;20363;-80
2023/05/19 13:53:38;;;;;;;0.10;0.10;;;;;;;;;;6112765;23;20049;-78
2023/05/19 13:56:25;;;;;;;0.10;0.10;;;;;;;;;;6136958;23;20418;-79
2023/05/19 13:59:11;;;;;;;0.10;0.10;;;;;;;;;;6137340;23;20017;-80
2023/05/19 14:01:57;;;;;;;0.10;0.10;;;;;;;;;;6135244;23;20025;-80
2023/05/19 14:04:43;;;;;;;0.00;0.00;;;;;;;;;;6135400;23;20417;-80
2023/05/19 14:07:30;;;;;;;0.10;0.10;;;;;;;;;;6137453;23;20020;-79
2023/05/19 14:10:16;;;;;;;0.10;0.10;;;;;;;;;;6135937;23;20025;-79
2023/05/19 14:13:03;;;;;;;0.00;0.00;;;;;;;;;;6136469;23;20450;-80
2023/05/19 14:15:48;;;;;;;0.00;0.00;;;;;;;;;;6113883;23;20131;-80
2023/05/19 14:18:34;;;;;;;0.00;0.00;;;;;;;;;;6137032;23;20359;-80
2023/05/19 14:21:20;;;;;;;0.20;0.20;;;;;;;;;;6136438;23;20045;-80
2023/05/19 14:24:05;;;;;;;0.10;0.10;;;;;;;;;;6136608;23;20017;-79
2023/05/19 14:26:52;;;;;;;0.10;0.10;;;;;;;;;;6137045;23;20020;-80
2023/05/19 14:29:37;;;;;;;0.10;0.10;;;;;;;;;;6113583;23;20143;-79
2023/05/19 14:32:23;;;;;;;0.00;0.00;;;;;;;;;;6114232;23;20085;-79
2023/05/19 14:35:09;;;;;;;0.10;0.10;;;;;;;;;;6135956;23;20443;-80
2023/05/19 14:37:54;;;;;;;0.10;0.10;;;;;;;;;;6134548;23;20017;-79
2023/05/19 14:40:40;;;;;;;0.00;0.00;;;;;;;;;;6115442;23;20057;-79
2023/05/19 14:43:26;;;;;;;0.20;0.20;;;;;;;;;;6135887;23;20402;-80
2023/05/19 14:46:12;;;;;;;0.10;0.10;;;;;;;;;;6136068;23;20025;-80
2023/05/19 14:49:02;;;;;;;0.10;0.10;;;;;;;;;;6115146;23;20017;-80
2023/05/19 14:51:47;;;;;;;0.13;0.13;;;;;;;;;;6135522;23;20029;-80
2023/05/19 14:54:33;;;;;;;0.10;0.10;;;;;;;;;;6071286;23;20511;-79
2023/05/19 14:57:19;;;;;;;0.00;0.00;;;;;;;;;;6135643;23;20025;-80
2023/05/19 15:00:09;;;;;;;0.05;0.05;;;;;;;;;;6136480;23;20014;-80
2023/05/19 15:02:55;;;;;;;0.00;0.00;;;;;;;;;;6114155;23;20017;-79
2023/05/19 15:05:40;;;;;;;0.00;0.00;;;;;;;;;;6070602;23;20056;-79
2023/05/19 15:08:26;;;;;;;0.03;0.00;;;;;;;;;;6135345;23;20261;-80
2023/05/19 15:11:12;;;;;;;0.10;0.10;;;;;;;;;;6136604;23;20022;-80
2023/05/19 15:14:00;;;;;;;0.00;0.00;;;;;;;;;;6111370;23;20343;-80
2023/05/19 15:16:46;;;;;;;0.08;0.08;;;;;;;;;;6134882;23;20009;-79
2023/05/19 15:19:32;;;;;;;0.00;0.00;;;;;;;;;;6135979;23;20013;-80
2023/05/19 15:22:18;;;;;;;0.15;0.15;;;;;;;;;;6135239;23;20056;-80
2023/05/19 15:25:03;;;;;;;0.10;0.10;;;;;;;;;;6134949;23;20351;-80
2023/05/19 15:27:50;;;;;;;0.10;0.10;;;;;;;;;;6135441;23;20017;-80
2023/05/19 15:30:35;;;;;;;0.10;0.10;;;;;;;;;;6135732;23;20258;-80
2023/05/19 15:33:21;;;;;;;0.10;0.10;;;;;;;;;;6114839;23;20096;-80
2023/05/19 15:36:07;;;;;;;0.10;0.10;;;;;;;;;;6135400;23;20013;-79
2023/05/19 15:38:52;;;;;;;0.00;0.00;;;;;;;;;;6134738;23;20293;-80
2023/05/19 15:41:38;;;;;;;0.10;0.10;;;;;;;;;;6113217;23;20104;-80
2023/05/19 15:44:24;;;;;;;0.10;0.10;;;;;;;;;;6134934;23;20076;-80
2023/05/19 15:47:10;;;;;;;0.10;0.10;;;;;;;;;;6112320;23;20068;-80
2023/05/19 15:49:55;;;;;;;0.10;0.10;;;;;;;;;;6112667;23;20382;-80
2023/05/19 15:52:41;;;;;;;0.10;0.10;;;;;;;;;;6135154;23;20025;-80
2023/05/19 15:55:27;;;;;;;0.00;0.00;;;;;;;;;;6113359;23;20247;-79
2023/05/19 15:58:14;;;;;;;0.00;0.00;;;;;;;;;;6128397;23;20068;-80
2023/05/19 16:01:00;;;;;;;0.22;0.10;;;;;;;;;;6109709;23;20033;-79
2023/05/19 16:03:45;;;;;;;0.00;0.00;;;;;;;;;;6134423;23;20014;-79
2023/05/19 16:06:31;;;;;;;0.00;0.00;;;;;;;;;;6102631;23;20021;-79
2023/05/19 16:09:17;;;;;;;0.10;0.10;;;;;;;;;;6136900;23;20049;-79
2023/05/19 16:12:02;;;;;;;0.10;0.10;;;;;;;;;;6112674;23;20360;-79
2023/05/19 16:14:48;;;;;;;0.10;0.10;;;;;;;;;;6133928;23;20327;-79
2023/05/19 16:17:34;;;;;;;0.08;0.08;;;;;;;;;;6134979;23;20033;-79
2023/05/19 16:20:25;;;;;;;0.00;0.00;;;;;;;;;;6134985;23;20025;-78
2023/05/19 16:23:11;;;;;;;0.00;0.00;;;;;;;;;;6136003;23;20010;-78
2023/05/19 16:25:56;;;;;;;0.00;0.00;;;;;;;;;;6134435;23;20013;-79
2023/05/19 16:28:42;;;;;;;0.00;0.00;;;;;;;;;;6134674;23;20018;-79
2023/05/19 16:31:28;;;;;;;0.00;0.00;;;;;;;;;;6135212;23;20346;-79
2023/05/19 16:34:13;;;;;;;0.10;0.10;;;;;;;;;;6134390;23;20422;-78
2023/05/19 16:36:59;;;;;;;0.10;0.10;;;;;;;;;;6134150;23;20014;-78
2023/05/19 16:39:47;;;;;;;0.10;0.10;;;;;;;;;;6135326;23;20025;-78
2023/05/19 16:42:32;;;;;;;0.20;0.20;;;;;;;;;;6134488;23;20025;-79
2023/05/19 16:45:18;;;;;;;0.00;0.00;;;;;;;;;;6088444;23;20013;-79
2023/05/19 16:48:04;;;;;;;0.10;0.10;;;;;;;;;;6110270;23;20022;-79
2023/05/19 16:50:50;;;;;;;0.10;0.10;;;;;;;;;;6135433;23;20096;-79
2023/05/19 16:53:36;;;;;;;0.10;0.10;;;;;;;;;;6002348;23;20576;-76
2023/05/19 16:56:22;;;;;;;0.10;0.10;;;;;;;;;;6106490;23;20013;-78
2023/05/19 16:59:08;;;;;;;0.10;0.10;;;;;;;;;;6116154;23;20028;-78
2023/05/19 17:01:54;;;;;;;0.00;0.00;;;;;;;;;;6136479;23;20494;-79
2023/05/19 17:04:40;;;;;;;0.00;0.00;;;;;;;;;;6136529;23;20017;-77
2023/05/19 17:07:27;;;;;;;0.00;0.00;;;;;;;;;;6115398;23;20017;-77
2023/05/19 17:10:13;;;;;;;0.00;0.00;;;;;;;;;;6135572;23;20022;-77
2023/05/19 17:12:59;;;;;;;0.10;0.10;;;;;;;;;;6133844;23;20024;-77
2023/05/19 17:15:45;;;;;;;0.00;0.00;;;;;;;;;;6135865;23;20045;-77
2023/05/19 17:18:30;;;;;;;0.00;0.00;;;;;;;;;;6134696;23;20024;-78
2023/05/19 17:21:16;;;;;;;0.00;0.00;;;;;;;;;;6139938;23;20021;-77
2023/05/19 17:24:02;;;;;;;0.03;0.03;;;;;;;;;;6114376;23;20073;-77
2023/05/19 17:26:47;;;;;;;0.00;0.00;;;;;;;;;;6136489;23;20020;-77
2023/05/19 17:29:33;;;;;;;0.00;0.00;;;;;;;;;;6137178;23;20350;-78
2023/05/19 17:32:24;;;;;;;0.00;0.00;;;;;;;;;;6136230;23;20022;-78
2023/05/19 17:35:10;;;;;;;0.10;0.10;;;;;;;;;;6114074;23;20013;-77
2023/05/19 17:37:56;;;;;;;0.00;0.00;;;;;;;;;;6135378;23;20009;-77
2023/05/19 17:40:42;;;;;;;0.00;0.00;;;;;;;;;;6136803;23;20336;-77
2023/05/19 17:43:28;;;;;;;0.00;0.00;;;;;;;;;;6095983;23;20302;-77
2023/05/19 17:46:13;;;;;;;0.10;0.10;;;;;;;;;;6136309;23;20096;-77
2023/05/19 17:48:59;;;;;;;0.00;0.00;;;;;;;;;;6136249;23;20481;-77
2023/05/19 17:51:45;;;;;;;0.00;0.00;;;;;;;;;;6136174;23;20136;-77
2023/05/19 17:54:31;;;;;;;0.10;0.10;;;;;;;;;;6137034;23;20018;-78
2023/05/19 17:57:17;;;;;;;0.00;0.00;;;;;;;;;;6115139;23;20048;-77
2023/05/19 18:00:04;;;;;;;0.00;0.00;;;;;;;;;;6136430;23;20093;-78
2023/05/19 18:02:50;;;;;;;0.10;0.10;;;;;;;;;;6113157;23;20010;-77
2023/05/19 18:05:37;;;;;;;0.00;0.00;;;;;;;;;;6115155;23;20014;-77
2023/05/19 18:08:23;;;;;;;0.00;0.00;;;;;;;;;;6136569;23;20025;-77
2023/05/19 18:11:12;;;;;;;0.10;0.10;;;;;;;;;;6137124;23;20592;-77
2023/05/19 18:13:57;;;;;;;0.00;0.00;;;;;;;;;;6135602;23;20692;-77
2023/05/19 18:16:43;;;;;;;0.10;0.10;;;;;;;;;;6137196;23;20025;-77
2023/05/19 18:19:29;;;;;;;0.10;0.10;;;;;;;;;;6135902;23;20017;-77
2023/05/19 18:22:17;;;;;;;0.10;0.10;;;;;;;;;;6136843;23;20021;-77
2023/05/19 18:25:02;;;;;;;0.00;0.00;;;;;;;;;;6135797;23;20010;-77